sensor_id;sensor_type;location;lat;lon;timestamp;P1;durP1;ratioP1;P2;durP2;ratioP2
37559;SDS011;23398;50.928;7.084;2024-01-30T00:01:04;7.50;;;5.30;;
37559;SDS011;23398;50.928;7.084;2024-01-30T00:03:30;7.28;;;4.85;;
37559;SDS011;23398;50.928;7.084;2024-01-30T00:05:56;7.57;;;4.90;;
37559;SDS011;23398;50.928;7.084;2024-01-30T00:08:21;5.95;;;4.90;;
37559;SDS011;23398;50.928;7.084;2024-01-30T00:10:47;5.47;;;4.80;;
37559;SDS011;23398;50.928;7.084;2024-01-30T00:13:12;5.88;;;5.15;;
37559;SDS011;23398;50.928;7.084;2024-01-30T00:15:39;6.93;;;5.18;;
37559;SDS011;23398;50.928;7.084;2024-01-30T00:18:05;8.13;;;5.45;;
37559;SDS011;23398;50.928;7.084;2024-01-30T00:20:30;6.68;;;5.47;;
37559;SDS011;23398;50.928;7.084;2024-01-30T00:22:56;8.80;;;5.55;;
37559;SDS011;23398;50.928;7.084;2024-01-30T00:25:21;6.10;;;5.00;;
37559;SDS011;23398;50.928;7.084;2024-01-30T00:27:47;7.28;;;4.85;;
37559;SDS011;23398;50.928;7.084;2024-01-30T00:30:12;9.02;;;5.13;;
37559;SDS011;23398;50.928;7.084;2024-01-30T00:32:38;7.82;;;5.47;;
37559;SDS011;23398;50.928;7.084;2024-01-30T00:35:04;6.20;;;5.50;;
37559;SDS011;23398;50.928;7.084;2024-01-30T00:37:30;5.88;;;4.90;;
37559;SDS011;23398;50.928;7.084;2024-01-30T00:39:56;6.97;;;5.28;;
37559;SDS011;23398;50.928;7.084;2024-01-30T00:42:22;7.65;;;5.15;;
37559;SDS011;23398;50.928;7.084;2024-01-30T00:44:49;8.25;;;5.13;;
37559;SDS011;23398;50.928;7.084;2024-01-30T00:47:14;5.90;;;5.22;;
37559;SDS011;23398;50.928;7.084;2024-01-30T00:49:40;7.95;;;5.30;;
37559;SDS011;23398;50.928;7.084;2024-01-30T00:52:05;7.22;;;5.40;;
37559;SDS011;23398;50.928;7.084;2024-01-30T00:54:31;6.55;;;5.10;;
37559;SDS011;23398;50.928;7.084;2024-01-30T00:56:57;7.05;;;5.22;;
37559;SDS011;23398;50.928;7.084;2024-01-30T00:59:22;7.13;;;5.78;;
37559;SDS011;23398;50.928;7.084;2024-01-30T01:01:48;7.68;;;4.82;;
37559;SDS011;23398;50.928;7.084;2024-01-30T01:04:13;6.57;;;5.00;;
37559;SDS011;23398;50.928;7.084;2024-01-30T01:06:39;6.85;;;4.88;;
37559;SDS011;23398;50.928;7.084;2024-01-30T01:09:07;7.03;;;4.97;;
37559;SDS011;23398;50.928;7.084;2024-01-30T01:11:33;5.78;;;4.93;;
37559;SDS011;23398;50.928;7.084;2024-01-30T01:13:58;7.55;;;4.78;;
37559;SDS011;23398;50.928;7.084;2024-01-30T01:16:24;5.90;;;5.05;;
37559;SDS011;23398;50.928;7.084;2024-01-30T01:18:49;9.15;;;5.20;;
37559;SDS011;23398;50.928;7.084;2024-01-30T01:21:15;8.07;;;5.22;;
37559;SDS011;23398;50.928;7.084;2024-01-30T01:23:41;6.03;;;4.88;;
37559;SDS011;23398;50.928;7.084;2024-01-30T01:26:07;6.45;;;4.63;;
37559;SDS011;23398;50.928;7.084;2024-01-30T01:28:34;7.25;;;5.18;;
37559;SDS011;23398;50.928;7.084;2024-01-30T01:31:00;6.15;;;5.18;;
37559;SDS011;23398;50.928;7.084;2024-01-30T01:33:30;8.65;;;4.90;;
37559;SDS011;23398;50.928;7.084;2024-01-30T01:35:58;7.38;;;5.30;;
37559;SDS011;23398;50.928;7.084;2024-01-30T01:38:23;6.13;;;4.90;;
37559;SDS011;23398;50.928;7.084;2024-01-30T01:40:49;5.95;;;4.82;;
37559;SDS011;23398;50.928;7.084;2024-01-30T01:43:16;7.40;;;4.88;;
37559;SDS011;23398;50.928;7.084;2024-01-30T01:45:41;6.95;;;4.80;;
37559;SDS011;23398;50.928;7.084;2024-01-30T01:48:07;7.85;;;5.05;;
37559;SDS011;23398;50.928;7.084;2024-01-30T01:50:34;5.50;;;4.72;;
37559;SDS011;23398;50.928;7.084;2024-01-30T01:53:00;6.68;;;4.70;;
37559;SDS011;23398;50.928;7.084;2024-01-30T01:55:28;5.40;;;4.50;;
37559;SDS011;23398;50.928;7.084;2024-01-30T01:57:55;6.20;;;5.00;;
37559;SDS011;23398;50.928;7.084;2024-01-30T02:00:21;5.72;;;4.60;;
37559;SDS011;23398;50.928;7.084;2024-01-30T02:02:47;7.07;;;4.82;;
37559;SDS011;23398;50.928;7.084;2024-01-30T02:05:13;6.85;;;4.75;;
37559;SDS011;23398;50.928;7.084;2024-01-30T02:07:39;6.10;;;4.55;;
37559;SDS011;23398;50.928;7.084;2024-01-30T02:10:07;6.32;;;4.63;;
37559;SDS011;23398;50.928;7.084;2024-01-30T02:12:33;7.53;;;5.15;;
37559;SDS011;23398;50.928;7.084;2024-01-30T02:14:59;6.22;;;4.47;;
37559;SDS011;23398;50.928;7.084;2024-01-30T02:17:24;8.23;;;5.40;;
37559;SDS011;23398;50.928;7.084;2024-01-30T02:19:50;7.18;;;4.90;;
37559;SDS011;23398;50.928;7.084;2024-01-30T02:22:16;6.07;;;4.65;;
37559;SDS011;23398;50.928;7.084;2024-01-30T02:24:43;5.65;;;4.22;;
37559;SDS011;23398;50.928;7.084;2024-01-30T02:27:08;6.88;;;4.72;;
37559;SDS011;23398;50.928;7.084;2024-01-30T02:29:34;5.82;;;4.78;;
37559;SDS011;23398;50.928;7.084;2024-01-30T02:31:59;6.57;;;4.82;;
37559;SDS011;23398;50.928;7.084;2024-01-30T02:34:25;6.07;;;4.40;;
37559;SDS011;23398;50.928;7.084;2024-01-30T02:36:50;6.50;;;4.85;;
37559;SDS011;23398;50.928;7.084;2024-01-30T02:39:16;7.50;;;4.95;;
37559;SDS011;23398;50.928;7.084;2024-01-30T02:41:41;6.22;;;4.65;;
37559;SDS011;23398;50.928;7.084;2024-01-30T02:44:07;6.20;;;4.72;;
37559;SDS011;23398;50.928;7.084;2024-01-30T02:46:33;7.85;;;4.70;;
37559;SDS011;23398;50.928;7.084;2024-01-30T02:48:58;6.28;;;4.95;;
37559;SDS011;23398;50.928;7.084;2024-01-30T02:51:24;5.47;;;4.32;;
37559;SDS011;23398;50.928;7.084;2024-01-30T02:53:49;5.75;;;4.47;;
37559;SDS011;23398;50.928;7.084;2024-01-30T02:56:15;5.40;;;4.57;;
37559;SDS011;23398;50.928;7.084;2024-01-30T02:58:40;7.50;;;4.57;;
37559;SDS011;23398;50.928;7.084;2024-01-30T03:01:06;6.28;;;4.75;;
37559;SDS011;23398;50.928;7.084;2024-01-30T03:03:32;6.07;;;4.47;;
37559;SDS011;23398;50.928;7.084;2024-01-30T03:06:00;6.03;;;4.68;;
37559;SDS011;23398;50.928;7.084;2024-01-30T03:08:25;5.70;;;4.55;;
37559;SDS011;23398;50.928;7.084;2024-01-30T03:10:51;5.70;;;4.60;;
37559;SDS011;23398;50.928;7.084;2024-01-30T03:13:17;5.70;;;4.45;;
37559;SDS011;23398;50.928;7.084;2024-01-30T03:15:42;6.72;;;4.43;;
37559;SDS011;23398;50.928;7.084;2024-01-30T03:18:08;5.05;;;4.32;;
37559;SDS011;23398;50.928;7.084;2024-01-30T03:20:34;6.60;;;4.65;;
37559;SDS011;23398;50.928;7.084;2024-01-30T03:22:59;8.13;;;4.85;;
37559;SDS011;23398;50.928;7.084;2024-01-30T03:25:25;5.05;;;4.40;;
37559;SDS011;23398;50.928;7.084;2024-01-30T03:27:51;5.88;;;4.43;;
37559;SDS011;23398;50.928;7.084;2024-01-30T03:30:17;6.13;;;4.45;;
37559;SDS011;23398;50.928;7.084;2024-01-30T03:32:43;5.90;;;4.60;;
37559;SDS011;23398;50.928;7.084;2024-01-30T03:35:09;5.45;;;4.18;;
37559;SDS011;23398;50.928;7.084;2024-01-30T03:37:34;6.13;;;4.88;;
37559;SDS011;23398;50.928;7.084;2024-01-30T03:40:01;5.55;;;4.43;;
37559;SDS011;23398;50.928;7.084;2024-01-30T03:42:27;6.45;;;4.70;;
37559;SDS011;23398;50.928;7.084;2024-01-30T03:44:52;5.15;;;4.53;;
37559;SDS011;23398;50.928;7.084;2024-01-30T03:47:18;5.95;;;4.63;;
37559;SDS011;23398;50.928;7.084;2024-01-30T03:49:45;5.63;;;4.60;;
37559;SDS011;23398;50.928;7.084;2024-01-30T03:52:10;5.25;;;4.10;;
37559;SDS011;23398;50.928;7.084;2024-01-30T03:54:36;6.75;;;4.18;;
37559;SDS011;23398;50.928;7.084;2024-01-30T03:57:02;6.55;;;4.22;;
37559;SDS011;23398;50.928;7.084;2024-01-30T03:59:27;6.72;;;4.80;;
37559;SDS011;23398;50.928;7.084;2024-01-30T04:01:53;6.28;;;4.53;;
37559;SDS011;23398;50.928;7.084;2024-01-30T04:04:19;5.70;;;4.55;;
37559;SDS011;23398;50.928;7.084;2024-01-30T04:06:45;6.32;;;4.45;;
37559;SDS011;23398;50.928;7.084;2024-01-30T04:09:14;5.15;;;4.22;;
37559;SDS011;23398;50.928;7.084;2024-01-30T04:11:41;6.32;;;4.55;;
37559;SDS011;23398;50.928;7.084;2024-01-30T04:14:07;6.18;;;4.47;;
37559;SDS011;23398;50.928;7.084;2024-01-30T04:16:33;4.88;;;4.38;;
37559;SDS011;23398;50.928;7.084;2024-01-30T04:18:59;6.00;;;4.47;;
37559;SDS011;23398;50.928;7.084;2024-01-30T04:21:24;5.78;;;4.40;;
37559;SDS011;23398;50.928;7.084;2024-01-30T04:23:50;6.32;;;4.05;;
37559;SDS011;23398;50.928;7.084;2024-01-30T04:26:16;6.07;;;4.80;;
37559;SDS011;23398;50.928;7.084;2024-01-30T04:28:43;5.95;;;4.53;;
37559;SDS011;23398;50.928;7.084;2024-01-30T04:31:09;6.22;;;4.72;;
37559;SDS011;23398;50.928;7.084;2024-01-30T04:33:35;6.03;;;4.70;;
37559;SDS011;23398;50.928;7.084;2024-01-30T04:36:01;5.25;;;4.35;;
37559;SDS011;23398;50.928;7.084;2024-01-30T04:38:27;4.85;;;4.22;;
37559;SDS011;23398;50.928;7.084;2024-01-30T04:40:53;5.85;;;4.22;;
37559;SDS011;23398;50.928;7.084;2024-01-30T04:43:19;6.03;;;4.30;;
37559;SDS011;23398;50.928;7.084;2024-01-30T04:45:44;5.55;;;4.30;;
37559;SDS011;23398;50.928;7.084;2024-01-30T04:48:10;6.50;;;4.28;;
37559;SDS011;23398;50.928;7.084;2024-01-30T04:50:35;5.20;;;4.07;;
37559;SDS011;23398;50.928;7.084;2024-01-30T04:53:01;6.53;;;4.75;;
37559;SDS011;23398;50.928;7.084;2024-01-30T04:55:27;5.20;;;4.35;;
37559;SDS011;23398;50.928;7.084;2024-01-30T04:57:52;6.70;;;4.50;;
37559;SDS011;23398;50.928;7.084;2024-01-30T05:00:18;7.45;;;4.50;;
37559;SDS011;23398;50.928;7.084;2024-01-30T05:02:44;5.78;;;4.13;;
37559;SDS011;23398;50.928;7.084;2024-01-30T05:05:09;5.55;;;4.20;;
37559;SDS011;23398;50.928;7.084;2024-01-30T05:07:36;6.13;;;4.45;;
37559;SDS011;23398;50.928;7.084;2024-01-30T05:10:01;6.57;;;4.05;;
37559;SDS011;23398;50.928;7.084;2024-01-30T05:12:28;6.07;;;4.10;;
37559;SDS011;23398;50.928;7.084;2024-01-30T05:14:53;6.05;;;4.50;;
37559;SDS011;23398;50.928;7.084;2024-01-30T05:17:19;5.13;;;4.10;;
37559;SDS011;23398;50.928;7.084;2024-01-30T05:19:45;5.50;;;4.05;;
37559;SDS011;23398;50.928;7.084;2024-01-30T05:22:10;5.18;;;4.20;;
37559;SDS011;23398;50.928;7.084;2024-01-30T05:24:40;5.25;;;4.38;;
37559;SDS011;23398;50.928;7.084;2024-01-30T05:27:06;6.30;;;4.32;;
37559;SDS011;23398;50.928;7.084;2024-01-30T05:29:32;6.90;;;4.35;;
37559;SDS011;23398;50.928;7.084;2024-01-30T05:31:58;6.38;;;4.55;;
37559;SDS011;23398;50.928;7.084;2024-01-30T05:34:23;6.90;;;4.88;;
37559;SDS011;23398;50.928;7.084;2024-01-30T05:36:49;6.25;;;4.25;;
37559;SDS011;23398;50.928;7.084;2024-01-30T05:39:14;7.50;;;4.80;;
37559;SDS011;23398;50.928;7.084;2024-01-30T05:41:40;5.82;;;5.03;;
37559;SDS011;23398;50.928;7.084;2024-01-30T05:44:06;6.55;;;4.68;;
37559;SDS011;23398;50.928;7.084;2024-01-30T05:46:31;6.32;;;4.18;;
37559;SDS011;23398;50.928;7.084;2024-01-30T05:48:58;7.28;;;5.00;;
37559;SDS011;23398;50.928;7.084;2024-01-30T05:51:24;6.95;;;4.65;;
37559;SDS011;23398;50.928;7.084;2024-01-30T05:53:49;6.78;;;5.00;;
37559;SDS011;23398;50.928;7.084;2024-01-30T05:56:15;5.28;;;4.30;;
37559;SDS011;23398;50.928;7.084;2024-01-30T05:58:41;7.18;;;4.82;;
37559;SDS011;23398;50.928;7.084;2024-01-30T06:01:08;6.63;;;4.50;;
37559;SDS011;23398;50.928;7.084;2024-01-30T06:03:34;7.60;;;4.57;;
37559;SDS011;23398;50.928;7.084;2024-01-30T06:05:59;6.00;;;5.05;;
37559;SDS011;23398;50.928;7.084;2024-01-30T06:08:25;7.85;;;4.72;;
37559;SDS011;23398;50.928;7.084;2024-01-30T06:10:50;6.97;;;4.82;;
37559;SDS011;23398;50.928;7.084;2024-01-30T06:13:16;7.22;;;4.88;;
37559;SDS011;23398;50.928;7.084;2024-01-30T06:15:42;5.95;;;4.60;;
37559;SDS011;23398;50.928;7.084;2024-01-30T06:18:07;7.97;;;4.72;;
37559;SDS011;23398;50.928;7.084;2024-01-30T06:20:33;9.47;;;6.80;;
37559;SDS011;23398;50.928;7.084;2024-01-30T06:22:59;7.10;;;5.05;;
37559;SDS011;23398;50.928;7.084;2024-01-30T06:25:24;6.00;;;4.43;;
37559;SDS011;23398;50.928;7.084;2024-01-30T06:27:50;5.63;;;4.50;;
37559;SDS011;23398;50.928;7.084;2024-01-30T06:30:16;6.60;;;4.43;;
37559;SDS011;23398;50.928;7.084;2024-01-30T06:32:41;7.18;;;5.18;;
37559;SDS011;23398;50.928;7.084;2024-01-30T06:35:07;5.43;;;4.35;;
37559;SDS011;23398;50.928;7.084;2024-01-30T06:37:33;5.82;;;4.65;;
37559;SDS011;23398;50.928;7.084;2024-01-30T06:39:59;5.68;;;4.30;;
37559;SDS011;23398;50.928;7.084;2024-01-30T06:42:25;7.55;;;4.35;;
37559;SDS011;23398;50.928;7.084;2024-01-30T06:44:50;4.57;;;3.97;;
37559;SDS011;23398;50.928;7.084;2024-01-30T06:47:16;5.47;;;4.65;;
37559;SDS011;23398;50.928;7.084;2024-01-30T06:49:41;7.38;;;4.32;;
37559;SDS011;23398;50.928;7.084;2024-01-30T06:52:08;6.55;;;4.75;;
37559;SDS011;23398;50.928;7.084;2024-01-30T06:54:34;5.90;;;4.35;;
37559;SDS011;23398;50.928;7.084;2024-01-30T06:56:59;6.63;;;4.40;;
37559;SDS011;23398;50.928;7.084;2024-01-30T06:59:25;5.18;;;4.22;;
37559;SDS011;23398;50.928;7.084;2024-01-30T07:01:50;5.45;;;4.57;;
37559;SDS011;23398;50.928;7.084;2024-01-30T07:04:16;6.57;;;4.88;;
37559;SDS011;23398;50.928;7.084;2024-01-30T07:06:43;6.88;;;4.40;;
37559;SDS011;23398;50.928;7.084;2024-01-30T07:09:09;5.32;;;4.38;;
37559;SDS011;23398;50.928;7.084;2024-01-30T07:11:35;6.60;;;4.57;;
37559;SDS011;23398;50.928;7.084;2024-01-30T07:14:00;6.50;;;4.93;;
37559;SDS011;23398;50.928;7.084;2024-01-30T07:16:28;5.65;;;4.30;;
37559;SDS011;23398;50.928;7.084;2024-01-30T07:18:54;5.45;;;4.60;;
37559;SDS011;23398;50.928;7.084;2024-01-30T07:21:21;6.30;;;4.53;;
37559;SDS011;23398;50.928;7.084;2024-01-30T07:23:50;6.43;;;4.78;;
37559;SDS011;23398;50.928;7.084;2024-01-30T07:26:15;6.20;;;4.90;;
37559;SDS011;23398;50.928;7.084;2024-01-30T07:28:41;5.38;;;4.60;;
37559;SDS011;23398;50.928;7.084;2024-01-30T07:31:06;6.90;;;4.60;;
37559;SDS011;23398;50.928;7.084;2024-01-30T07:33:32;5.28;;;4.35;;
37559;SDS011;23398;50.928;7.084;2024-01-30T07:35:57;7.50;;;4.78;;
37559;SDS011;23398;50.928;7.084;2024-01-30T07:38:23;5.40;;;4.35;;
37559;SDS011;23398;50.928;7.084;2024-01-30T07:40:49;5.63;;;4.30;;
37559;SDS011;23398;50.928;7.084;2024-01-30T07:43:14;5.63;;;4.30;;
37559;SDS011;23398;50.928;7.084;2024-01-30T07:45:40;6.38;;;4.43;;
37559;SDS011;23398;50.928;7.084;2024-01-30T07:48:06;6.20;;;4.35;;
37559;SDS011;23398;50.928;7.084;2024-01-30T07:50:31;6.47;;;4.65;;
37559;SDS011;23398;50.928;7.084;2024-01-30T07:52:58;5.57;;;4.43;;
37559;SDS011;23398;50.928;7.084;2024-01-30T07:55:25;5.75;;;4.32;;
37559;SDS011;23398;50.928;7.084;2024-01-30T07:57:53;6.07;;;4.57;;
37559;SDS011;23398;50.928;7.084;2024-01-30T08:00:20;5.55;;;4.32;;
37559;SDS011;23398;50.928;7.084;2024-01-30T08:02:46;6.20;;;4.97;;
37559;SDS011;23398;50.928;7.084;2024-01-30T08:05:12;7.88;;;4.70;;
37559;SDS011;23398;50.928;7.084;2024-01-30T08:07:40;6.13;;;4.85;;
37559;SDS011;23398;50.928;7.084;2024-01-30T08:10:07;6.53;;;4.72;;
37559;SDS011;23398;50.928;7.084;2024-01-30T08:12:33;7.10;;;4.63;;
37559;SDS011;23398;50.928;7.084;2024-01-30T08:14:58;5.50;;;4.53;;
37559;SDS011;23398;50.928;7.084;2024-01-30T08:17:24;4.90;;;4.30;;
37559;SDS011;23398;50.928;7.084;2024-01-30T08:19:49;6.43;;;4.18;;
37559;SDS011;23398;50.928;7.084;2024-01-30T08:22:15;5.45;;;4.40;;
37559;SDS011;23398;50.928;7.084;2024-01-30T08:24:41;6.13;;;4.38;;
37559;SDS011;23398;50.928;7.084;2024-01-30T08:27:06;5.57;;;4.72;;
37559;SDS011;23398;50.928;7.084;2024-01-30T08:29:34;5.72;;;4.55;;
37559;SDS011;23398;50.928;7.084;2024-01-30T08:32:00;5.93;;;4.47;;
37559;SDS011;23398;50.928;7.084;2024-01-30T08:34:26;5.60;;;4.53;;
37559;SDS011;23398;50.928;7.084;2024-01-30T08:36:52;7.45;;;4.78;;
37559;SDS011;23398;50.928;7.084;2024-01-30T08:39:18;5.47;;;4.32;;
37559;SDS011;23398;50.928;7.084;2024-01-30T08:41:44;6.47;;;4.80;;
37559;SDS011;23398;50.928;7.084;2024-01-30T08:44:09;6.45;;;4.57;;
37559;SDS011;23398;50.928;7.084;2024-01-30T08:46:36;6.70;;;4.40;;
37559;SDS011;23398;50.928;7.084;2024-01-30T08:49:02;6.47;;;4.38;;
37559;SDS011;23398;50.928;7.084;2024-01-30T08:51:29;4.82;;;4.10;;
37559;SDS011;23398;50.928;7.084;2024-01-30T08:53:55;7.25;;;4.38;;
37559;SDS011;23398;50.928;7.084;2024-01-30T08:56:20;6.78;;;4.50;;
37559;SDS011;23398;50.928;7.084;2024-01-30T08:58:46;5.57;;;3.97;;
37559;SDS011;23398;50.928;7.084;2024-01-30T09:01:11;5.80;;;4.55;;
37559;SDS011;23398;50.928;7.084;2024-01-30T09:03:37;5.05;;;4.40;;
37559;SDS011;23398;50.928;7.084;2024-01-30T09:06:11;6.40;;;4.38;;
37559;SDS011;23398;50.928;7.084;2024-01-30T09:08:36;5.72;;;4.22;;
37559;SDS011;23398;50.928;7.084;2024-01-30T09:11:12;5.35;;;4.20;;
37559;SDS011;23398;50.928;7.084;2024-01-30T09:13:39;4.80;;;4.10;;
37559;SDS011;23398;50.928;7.084;2024-01-30T09:16:04;4.60;;;3.90;;
37559;SDS011;23398;50.928;7.084;2024-01-30T09:18:30;5.13;;;4.15;;
37559;SDS011;23398;50.928;7.084;2024-01-30T09:20:56;6.00;;;4.30;;
37559;SDS011;23398;50.928;7.084;2024-01-30T09:23:22;5.35;;;4.15;;
37559;SDS011;23398;50.928;7.084;2024-01-30T09:25:47;5.38;;;4.10;;
37559;SDS011;23398;50.928;7.084;2024-01-30T09:28:13;6.10;;;4.13;;
37559;SDS011;23398;50.928;7.084;2024-01-30T09:30:39;6.30;;;4.45;;
37559;SDS011;23398;50.928;7.084;2024-01-30T09:33:05;4.85;;;3.75;;
37559;SDS011;23398;50.928;7.084;2024-01-30T09:35:31;5.13;;;3.97;;
37559;SDS011;23398;50.928;7.084;2024-01-30T09:37:57;5.25;;;3.55;;
37559;SDS011;23398;50.928;7.084;2024-01-30T09:40:23;4.97;;;3.75;;
37559;SDS011;23398;50.928;7.084;2024-01-30T09:42:50;4.35;;;3.90;;
37559;SDS011;23398;50.928;7.084;2024-01-30T09:45:17;4.68;;;4.00;;
37559;SDS011;23398;50.928;7.084;2024-01-30T09:47:46;4.88;;;3.92;;
37559;SDS011;23398;50.928;7.084;2024-01-30T09:50:13;4.80;;;3.92;;
37559;SDS011;23398;50.928;7.084;2024-01-30T09:52:40;6.07;;;4.00;;
37559;SDS011;23398;50.928;7.084;2024-01-30T09:55:06;4.53;;;3.80;;
37559;SDS011;23398;50.928;7.084;2024-01-30T09:57:32;4.93;;;3.95;;
37559;SDS011;23398;50.928;7.084;2024-01-30T09:59:59;5.70;;;3.70;;
37559;SDS011;23398;50.928;7.084;2024-01-30T10:02:25;5.53;;;4.00;;
37559;SDS011;23398;50.928;7.084;2024-01-30T10:04:51;4.95;;;3.90;;
37559;SDS011;23398;50.928;7.084;2024-01-30T10:07:17;4.35;;;3.55;;
37559;SDS011;23398;50.928;7.084;2024-01-30T10:09:43;4.05;;;3.65;;
37559;SDS011;23398;50.928;7.084;2024-01-30T10:12:09;8.18;;;4.00;;
37559;SDS011;23398;50.928;7.084;2024-01-30T10:14:38;6.40;;;3.80;;
37559;SDS011;23398;50.928;7.084;2024-01-30T10:17:04;4.28;;;3.38;;
37559;SDS011;23398;50.928;7.084;2024-01-30T10:19:30;6.05;;;3.80;;
37559;SDS011;23398;50.928;7.084;2024-01-30T10:21:56;5.32;;;4.05;;
37559;SDS011;23398;50.928;7.084;2024-01-30T10:24:26;4.50;;;3.63;;
37559;SDS011;23398;50.928;7.084;2024-01-30T10:26:52;4.55;;;3.90;;
37559;SDS011;23398;50.928;7.084;2024-01-30T10:29:18;5.78;;;4.00;;
37559;SDS011;23398;50.928;7.084;2024-01-30T10:31:44;4.22;;;3.65;;
37559;SDS011;23398;50.928;7.084;2024-01-30T10:34:09;4.43;;;3.60;;
37559;SDS011;23398;50.928;7.084;2024-01-30T10:36:38;5.70;;;3.78;;
37559;SDS011;23398;50.928;7.084;2024-01-30T10:39:08;6.50;;;3.88;;
37559;SDS011;23398;50.928;7.084;2024-01-30T10:41:35;4.10;;;3.40;;
37559;SDS011;23398;50.928;7.084;2024-01-30T10:44:09;5.95;;;3.55;;
37559;SDS011;23398;50.928;7.084;2024-01-30T10:46:35;7.43;;;3.80;;
37559;SDS011;23398;50.928;7.084;2024-01-30T10:49:04;4.53;;;3.55;;
37559;SDS011;23398;50.928;7.084;2024-01-30T10:51:31;6.85;;;4.05;;
37559;SDS011;23398;50.928;7.084;2024-01-30T10:53:57;5.60;;;3.63;;
37559;SDS011;23398;50.928;7.084;2024-01-30T10:56:23;6.72;;;3.42;;
37559;SDS011;23398;50.928;7.084;2024-01-30T10:58:53;4.85;;;3.70;;
37559;SDS011;23398;50.928;7.084;2024-01-30T11:01:22;5.28;;;3.80;;
37559;SDS011;23398;50.928;7.084;2024-01-30T11:03:49;8.63;;;4.20;;
37559;SDS011;23398;50.928;7.084;2024-01-30T11:06:19;3.88;;;3.45;;
37559;SDS011;23398;50.928;7.084;2024-01-30T11:08:59;3.88;;;3.40;;
37559;SDS011;23398;50.928;7.084;2024-01-30T11:11:27;5.45;;;3.63;;
37559;SDS011;23398;50.928;7.084;2024-01-30T11:13:52;5.47;;;4.00;;
37559;SDS011;23398;50.928;7.084;2024-01-30T11:16:19;5.57;;;3.50;;
37559;SDS011;23398;50.928;7.084;2024-01-30T11:18:49;3.92;;;3.22;;
37559;SDS011;23398;50.928;7.084;2024-01-30T11:21:16;6.32;;;3.85;;
37559;SDS011;23398;50.928;7.084;2024-01-30T11:23:42;4.70;;;3.53;;
37559;SDS011;23398;50.928;7.084;2024-01-30T11:26:10;5.70;;;3.78;;
37559;SDS011;23398;50.928;7.084;2024-01-30T11:28:36;6.55;;;3.72;;
37559;SDS011;23398;50.928;7.084;2024-01-30T11:31:03;5.82;;;3.85;;
37559;SDS011;23398;50.928;7.084;2024-01-30T11:33:32;6.72;;;3.70;;
37559;SDS011;23398;50.928;7.084;2024-01-30T11:35:59;5.38;;;3.78;;
37559;SDS011;23398;50.928;7.084;2024-01-30T11:38:26;3.83;;;3.47;;
37559;SDS011;23398;50.928;7.084;2024-01-30T11:40:55;4.75;;;3.58;;
37559;SDS011;23398;50.928;7.084;2024-01-30T11:43:22;4.80;;;3.47;;
37559;SDS011;23398;50.928;7.084;2024-01-30T11:45:48;4.50;;;3.47;;
37559;SDS011;23398;50.928;7.084;2024-01-30T11:48:14;5.57;;;3.55;;
37559;SDS011;23398;50.928;7.084;2024-01-30T11:50:40;4.72;;;3.70;;
37559;SDS011;23398;50.928;7.084;2024-01-30T11:53:06;5.20;;;3.60;;
37559;SDS011;23398;50.928;7.084;2024-01-30T11:55:32;5.38;;;3.95;;
37559;SDS011;23398;50.928;7.084;2024-01-30T11:57:58;5.47;;;3.55;;
37559;SDS011;23398;50.928;7.084;2024-01-30T12:00:24;5.32;;;4.32;;
37559;SDS011;23398;50.928;7.084;2024-01-30T12:02:50;7.82;;;3.58;;
37559;SDS011;23398;50.928;7.084;2024-01-30T12:05:20;5.13;;;3.42;;
37559;SDS011;23398;50.928;7.084;2024-01-30T12:07:47;8.02;;;3.40;;
37559;SDS011;23398;50.928;7.084;2024-01-30T12:10:13;4.97;;;3.10;;
37559;SDS011;23398;50.928;7.084;2024-01-30T12:12:39;5.35;;;3.58;;
37559;SDS011;23398;50.928;7.084;2024-01-30T12:15:06;4.07;;;3.38;;
37559;SDS011;23398;50.928;7.084;2024-01-30T12:17:33;5.07;;;3.40;;
37559;SDS011;23398;50.928;7.084;2024-01-30T12:20:23;4.00;;;3.38;;
37559;SDS011;23398;50.928;7.084;2024-01-30T12:22:48;5.35;;;3.80;;
37559;SDS011;23398;50.928;7.084;2024-01-30T12:25:15;4.55;;;3.55;;
37559;SDS011;23398;50.928;7.084;2024-01-30T12:27:49;5.88;;;3.60;;
37559;SDS011;23398;50.928;7.084;2024-01-30T12:30:16;4.18;;;3.20;;
37559;SDS011;23398;50.928;7.084;2024-01-30T12:32:46;5.53;;;3.67;;
37559;SDS011;23398;50.928;7.084;2024-01-30T12:35:18;4.05;;;3.40;;
37559;SDS011;23398;50.928;7.084;2024-01-30T12:37:44;3.58;;;3.28;;
37559;SDS011;23398;50.928;7.084;2024-01-30T12:40:11;4.65;;;3.50;;
37559;SDS011;23398;50.928;7.084;2024-01-30T12:42:39;4.45;;;3.40;;
37559;SDS011;23398;50.928;7.084;2024-01-30T12:45:06;4.68;;;3.45;;
37559;SDS011;23398;50.928;7.084;2024-01-30T12:47:33;5.28;;;3.50;;
37559;SDS011;23398;50.928;7.084;2024-01-30T12:49:58;4.82;;;3.42;;
37559;SDS011;23398;50.928;7.084;2024-01-30T12:52:24;4.55;;;3.60;;
37559;SDS011;23398;50.928;7.084;2024-01-30T12:54:50;4.68;;;3.33;;
37559;SDS011;23398;50.928;7.084;2024-01-30T12:57:16;4.93;;;3.28;;
37559;SDS011;23398;50.928;7.084;2024-01-30T12:59:43;4.07;;;3.28;;
37559;SDS011;23398;50.928;7.084;2024-01-30T13:02:09;6.90;;;3.50;;
37559;SDS011;23398;50.928;7.084;2024-01-30T13:04:35;4.65;;;3.10;;
37559;SDS011;23398;50.928;7.084;2024-01-30T13:07:01;3.83;;;3.08;;
37559;SDS011;23398;50.928;7.084;2024-01-30T13:09:27;5.25;;;3.10;;
37559;SDS011;23398;50.928;7.084;2024-01-30T13:11:54;4.25;;;3.30;;
37559;SDS011;23398;50.928;7.084;2024-01-30T13:14:19;5.57;;;3.42;;
37559;SDS011;23398;50.928;7.084;2024-01-30T13:16:45;4.38;;;3.08;;
37559;SDS011;23398;50.928;7.084;2024-01-30T13:19:11;5.00;;;3.35;;
37559;SDS011;23398;50.928;7.084;2024-01-30T13:21:36;4.68;;;3.30;;
37559;SDS011;23398;50.928;7.084;2024-01-30T13:24:02;5.50;;;3.45;;
37559;SDS011;23398;50.928;7.084;2024-01-30T13:26:28;4.45;;;3.58;;
37559;SDS011;23398;50.928;7.084;2024-01-30T13:28:56;3.80;;;3.17;;
37559;SDS011;23398;50.928;7.084;2024-01-30T13:31:21;5.13;;;3.35;;
37559;SDS011;23398;50.928;7.084;2024-01-30T13:33:47;5.18;;;3.42;;
37559;SDS011;23398;50.928;7.084;2024-01-30T13:36:13;5.72;;;3.42;;
37559;SDS011;23398;50.928;7.084;2024-01-30T13:38:39;4.78;;;3.55;;
37559;SDS011;23398;50.928;7.084;2024-01-30T13:41:05;5.57;;;3.55;;
37559;SDS011;23398;50.928;7.084;2024-01-30T13:43:31;4.43;;;4.00;;
37559;SDS011;23398;50.928;7.084;2024-01-30T13:45:56;6.30;;;3.55;;
37559;SDS011;23398;50.928;7.084;2024-01-30T13:48:22;4.78;;;3.80;;
37559;SDS011;23398;50.928;7.084;2024-01-30T13:50:48;4.65;;;3.67;;
37559;SDS011;23398;50.928;7.084;2024-01-30T13:53:13;4.43;;;3.70;;
37559;SDS011;23398;50.928;7.084;2024-01-30T13:55:39;5.75;;;3.58;;
37559;SDS011;23398;50.928;7.084;2024-01-30T13:58:05;6.18;;;3.90;;
37559;SDS011;23398;50.928;7.084;2024-01-30T14:00:31;4.72;;;3.75;;
37559;SDS011;23398;50.928;7.084;2024-01-30T14:02:58;6.40;;;4.03;;
37559;SDS011;23398;50.928;7.084;2024-01-30T14:05:24;6.10;;;3.95;;
37559;SDS011;23398;50.928;7.084;2024-01-30T14:07:51;4.80;;;3.75;;
37559;SDS011;23398;50.928;7.084;2024-01-30T14:10:17;5.68;;;4.10;;
37559;SDS011;23398;50.928;7.084;2024-01-30T14:12:43;4.82;;;3.78;;
37559;SDS011;23398;50.928;7.084;2024-01-30T14:15:09;5.50;;;3.70;;
37559;SDS011;23398;50.928;7.084;2024-01-30T14:17:36;7.00;;;3.70;;
37559;SDS011;23398;50.928;7.084;2024-01-30T14:20:05;6.25;;;4.07;;
37559;SDS011;23398;50.928;7.084;2024-01-30T14:22:32;6.78;;;4.47;;
37559;SDS011;23398;50.928;7.084;2024-01-30T14:24:58;5.97;;;3.80;;
37559;SDS011;23398;50.928;7.084;2024-01-30T14:27:24;4.55;;;3.90;;
37559;SDS011;23398;50.928;7.084;2024-01-30T14:29:50;4.72;;;3.55;;
37559;SDS011;23398;50.928;7.084;2024-01-30T14:32:15;5.95;;;3.60;;
37559;SDS011;23398;50.928;7.084;2024-01-30T14:34:41;5.78;;;3.67;;
37559;SDS011;23398;50.928;7.084;2024-01-30T14:37:06;4.03;;;3.45;;
37559;SDS011;23398;50.928;7.084;2024-01-30T14:39:33;5.57;;;3.80;;
37559;SDS011;23398;50.928;7.084;2024-01-30T14:41:59;6.65;;;4.03;;